sensor_id;sensor_type;location;lat;lon;timestamp;P1;durP1;ratioP1;P2;durP2;ratioP2
17133;SDS011;8682;52.120;5.252;2022-12-26T00:00:05;1248.40;;;722.77;;
17133;SDS011;8682;52.120;5.252;2022-12-26T00:02:33;1202.10;;;626.00;;
17133;SDS011;8682;52.120;5.252;2022-12-26T00:05:00;1252.07;;;640.20;;
17133;SDS011;8682;52.120;5.252;2022-12-26T00:07:27;1127.00;;;654.83;;
17133;SDS011;8682;52.120;5.252;2022-12-26T00:09:54;1278.97;;;725.23;;
17133;SDS011;8682;52.120;5.252;2022-12-26T00:12:23;1126.90;;;661.53;;
17133;SDS011;8682;52.120;5.252;2022-12-26T00:14:50;1173.03;;;652.50;;
17133;SDS011;8682;52.120;5.252;2022-12-26T00:17:17;1103.37;;;644.53;;
17133;SDS011;8682;52.120;5.252;2022-12-26T00:19:45;1119.97;;;668.23;;
17133;SDS011;8682;52.120;5.252;2022-12-26T00:22:12;1194.10;;;698.30;;
17133;SDS011;8682;52.120;5.252;2022-12-26T00:24:39;1137.03;;;645.30;;
17133;SDS011;8682;52.120;5.252;2022-12-26T00:27:07;1115.90;;;623.67;;
17133;SDS011;8682;52.120;5.252;2022-12-26T00:29:35;1254.30;;;702.27;;
17133;SDS011;8682;52.120;5.252;2022-12-26T00:32:03;1250.57;;;676.53;;
17133;SDS011;8682;52.120;5.252;2022-12-26T00:34:30;1259.93;;;654.50;;
17133;SDS011;8682;52.120;5.252;2022-12-26T00:36:57;1132.53;;;613.80;;
17133;SDS011;8682;52.120;5.252;2022-12-26T00:39:24;1082.70;;;611.90;;
17133;SDS011;8682;52.120;5.252;2022-12-26T00:41:52;1127.07;;;625.87;;
17133;SDS011;8682;52.120;5.252;2022-12-26T00:44:19;1113.43;;;636.13;;
17133;SDS011;8682;52.120;5.252;2022-12-26T00:46:47;1164.80;;;645.10;;
17133;SDS011;8682;52.120;5.252;2022-12-26T00:49:15;1119.00;;;667.03;;
17133;SDS011;8682;52.120;5.252;2022-12-26T00:51:42;1084.00;;;634.23;;
17133;SDS011;8682;52.120;5.252;2022-12-26T00:54:09;1140.93;;;637.00;;
17133;SDS011;8682;52.120;5.252;2022-12-26T00:56:36;1142.77;;;625.17;;
17133;SDS011;8682;52.120;5.252;2022-12-26T00:59:04;1084.87;;;646.07;;
17133;SDS011;8682;52.120;5.252;2022-12-26T01:01:31;1054.23;;;612.23;;
17133;SDS011;8682;52.120;5.252;2022-12-26T01:04:00;1131.77;;;641.27;;
17133;SDS011;8682;52.120;5.252;2022-12-26T01:06:27;1085.93;;;627.57;;
17133;SDS011;8682;52.120;5.252;2022-12-26T01:08:54;1111.60;;;632.50;;
17133;SDS011;8682;52.120;5.252;2022-12-26T01:11:23;1111.63;;;644.07;;
17133;SDS011;8682;52.120;5.252;2022-12-26T01:14:17;1162.57;;;648.07;;
17133;SDS011;8682;52.120;5.252;2022-12-26T01:16:45;1072.23;;;633.20;;
17133;SDS011;8682;52.120;5.252;2022-12-26T01:19:12;1046.47;;;606.67;;
17133;SDS011;8682;52.120;5.252;2022-12-26T01:21:39;1056.67;;;605.53;;
17133;SDS011;8682;52.120;5.252;2022-12-26T01:24:07;1068.87;;;645.87;;
17133;SDS011;8682;52.120;5.252;2022-12-26T01:26:35;1107.30;;;639.20;;
17133;SDS011;8682;52.120;5.252;2022-12-26T01:29:02;1027.37;;;646.27;;
17133;SDS011;8682;52.120;5.252;2022-12-26T01:31:31;1062.80;;;634.00;;
17133;SDS011;8682;52.120;5.252;2022-12-26T01:33:58;1198.27;;;679.40;;
17133;SDS011;8682;52.120;5.252;2022-12-26T01:36:25;1029.73;;;623.80;;
17133;SDS011;8682;52.120;5.252;2022-12-26T01:38:53;1039.67;;;599.30;;
17133;SDS011;8682;52.120;5.252;2022-12-26T01:41:20;1057.40;;;609.80;;
17133;SDS011;8682;52.120;5.252;2022-12-26T01:43:51;1131.30;;;664.13;;
17133;SDS011;8682;52.120;5.252;2022-12-26T01:46:20;1072.03;;;625.07;;
17133;SDS011;8682;52.120;5.252;2022-12-26T01:48:49;981.40;;;617.10;;
17133;SDS011;8682;52.120;5.252;2022-12-26T01:51:20;1225.53;;;696.90;;
17133;SDS011;8682;52.120;5.252;2022-12-26T01:53:48;985.57;;;583.77;;
17133;SDS011;8682;52.120;5.252;2022-12-26T01:56:17;1086.60;;;626.87;;
17133;SDS011;8682;52.120;5.252;2022-12-26T01:58:46;1068.67;;;602.73;;
17133;SDS011;8682;52.120;5.252;2022-12-26T02:01:15;929.83;;;591.97;;
17133;SDS011;8682;52.120;5.252;2022-12-26T02:03:43;1070.40;;;606.30;;
17133;SDS011;8682;52.120;5.252;2022-12-26T02:06:30;1190.73;;;647.70;;
17133;SDS011;8682;52.120;5.252;2022-12-26T02:08:58;1049.50;;;605.33;;
17133;SDS011;8682;52.120;5.252;2022-12-26T02:11:26;1187.87;;;677.70;;
17133;SDS011;8682;52.120;5.252;2022-12-26T02:13:54;822.37;;;513.27;;
17133;SDS011;8682;52.120;5.252;2022-12-26T02:16:22;993.97;;;622.10;;
17133;SDS011;8682;52.120;5.252;2022-12-26T02:18:49;1085.43;;;615.87;;
17133;SDS011;8682;52.120;5.252;2022-12-26T02:21:36;1083.13;;;622.57;;
17133;SDS011;8682;52.120;5.252;2022-12-26T02:24:10;1202.87;;;656.57;;
17133;SDS011;8682;52.120;5.252;2022-12-26T02:29:37;1233.40;;;674.07;;
17133;SDS011;8682;52.120;5.252;2022-12-26T02:32:12;1229.73;;;675.57;;
17133;SDS011;8682;52.120;5.252;2022-12-26T02:34:45;1091.30;;;633.50;;
17133;SDS011;8682;52.120;5.252;2022-12-26T02:37:19;1186.90;;;672.83;;
17133;SDS011;8682;52.120;5.252;2022-12-26T02:40:03;1179.07;;;685.67;;
17133;SDS011;8682;52.120;5.252;2022-12-26T02:42:40;1166.03;;;651.97;;
17133;SDS011;8682;52.120;5.252;2022-12-26T02:45:11;1082.93;;;589.10;;
17133;SDS011;8682;52.120;5.252;2022-12-26T02:48:01;1204.37;;;655.67;;
17133;SDS011;8682;52.120;5.252;2022-12-26T02:50:32;1226.27;;;702.80;;
17133;SDS011;8682;52.120;5.252;2022-12-26T02:53:25;1357.43;;;668.93;;
17133;SDS011;8682;52.120;5.252;2022-12-26T02:56:12;1325.47;;;650.53;;
17133;SDS011;8682;52.120;5.252;2022-12-26T02:58:59;1153.17;;;638.80;;
17133;SDS011;8682;52.120;5.252;2022-12-26T03:01:45;1192.13;;;647.53;;
17133;SDS011;8682;52.120;5.252;2022-12-26T03:04:34;1285.27;;;664.17;;
17133;SDS011;8682;52.120;5.252;2022-12-26T03:07:21;1156.13;;;635.93;;
17133;SDS011;8682;52.120;5.252;2022-12-26T03:10:08;1273.23;;;661.97;;
17133;SDS011;8682;52.120;5.252;2022-12-26T03:12:59;1085.73;;;606.93;;
17133;SDS011;8682;52.120;5.252;2022-12-26T03:15:37;1194.27;;;656.07;;
17133;SDS011;8682;52.120;5.252;2022-12-26T03:18:20;1240.70;;;648.10;;
17133;SDS011;8682;52.120;5.252;2022-12-26T03:20:50;1285.23;;;638.77;;
17133;SDS011;8682;52.120;5.252;2022-12-26T03:23:18;1147.57;;;570.73;;
17133;SDS011;8682;52.120;5.252;2022-12-26T03:25:47;1115.87;;;628.13;;
17133;SDS011;8682;52.120;5.252;2022-12-26T03:28:33;1174.63;;;644.67;;
17133;SDS011;8682;52.120;5.252;2022-12-26T03:31:03;1049.03;;;594.63;;
17133;SDS011;8682;52.120;5.252;2022-12-26T03:33:30;939.60;;;564.00;;
17133;SDS011;8682;52.120;5.252;2022-12-26T03:36:34;1114.30;;;658.37;;
17133;SDS011;8682;52.120;5.252;2022-12-26T03:39:07;1167.57;;;664.80;;
17133;SDS011;8682;52.120;5.252;2022-12-26T03:41:35;1066.87;;;622.13;;
17133;SDS011;8682;52.120;5.252;2022-12-26T03:44:25;1220.23;;;630.63;;
17133;SDS011;8682;52.120;5.252;2022-12-26T03:47:15;1078.60;;;580.93;;
17133;SDS011;8682;52.120;5.252;2022-12-26T03:50:02;1112.47;;;662.57;;
17133;SDS011;8682;52.120;5.252;2022-12-26T03:52:51;1063.80;;;596.67;;
17133;SDS011;8682;52.120;5.252;2022-12-26T03:55:40;1226.87;;;645.07;;
17133;SDS011;8682;52.120;5.252;2022-12-26T03:58:28;1206.33;;;694.00;;
17133;SDS011;8682;52.120;5.252;2022-12-26T04:01:15;1160.17;;;629.27;;
17133;SDS011;8682;52.120;5.252;2022-12-26T04:04:01;1111.87;;;636.57;;
17133;SDS011;8682;52.120;5.252;2022-12-26T04:06:44;1148.63;;;656.47;;
17133;SDS011;8682;52.120;5.252;2022-12-26T04:09:35;1183.13;;;674.40;;
17133;SDS011;8682;52.120;5.252;2022-12-26T04:12:21;1038.83;;;597.77;;
17133;SDS011;8682;52.120;5.252;2022-12-26T04:15:10;1226.17;;;633.20;;
17133;SDS011;8682;52.120;5.252;2022-12-26T04:17:59;972.97;;;667.43;;
17133;SDS011;8682;52.120;5.252;2022-12-26T04:20:45;1150.10;;;589.13;;
17133;SDS011;8682;52.120;5.252;2022-12-26T04:23:16;1137.13;;;649.20;;
17133;SDS011;8682;52.120;5.252;2022-12-26T04:26:05;1102.90;;;629.20;;
17133;SDS011;8682;52.120;5.252;2022-12-26T04:28:51;1145.10;;;652.67;;
17133;SDS011;8682;52.120;5.252;2022-12-26T04:31:38;1418.00;;;728.37;;
17133;SDS011;8682;52.120;5.252;2022-12-26T04:34:28;1192.57;;;623.20;;
17133;SDS011;8682;52.120;5.252;2022-12-26T04:37:17;1218.97;;;658.77;;
17133;SDS011;8682;52.120;5.252;2022-12-26T04:40:03;1261.70;;;679.87;;
17133;SDS011;8682;52.120;5.252;2022-12-26T04:42:53;1352.37;;;724.17;;
17133;SDS011;8682;52.120;5.252;2022-12-26T04:45:39;1205.57;;;641.50;;
17133;SDS011;8682;52.120;5.252;2022-12-26T04:48:07;1279.80;;;693.53;;
17133;SDS011;8682;52.120;5.252;2022-12-26T04:50:52;1375.07;;;700.93;;
17133;SDS011;8682;52.120;5.252;2022-12-26T04:53:19;1287.73;;;713.70;;
17133;SDS011;8682;52.120;5.252;2022-12-26T04:55:51;1201.87;;;606.60;;
17133;SDS011;8682;52.120;5.252;2022-12-26T04:58:20;1275.47;;;675.67;;
17133;SDS011;8682;52.120;5.252;2022-12-26T05:00:50;1062.80;;;568.63;;
17133;SDS011;8682;52.120;5.252;2022-12-26T05:03:38;1185.40;;;636.37;;
17133;SDS011;8682;52.120;5.252;2022-12-26T05:06:31;1389.03;;;702.20;;
17133;SDS011;8682;52.120;5.252;2022-12-26T05:09:16;1290.73;;;632.90;;
17133;SDS011;8682;52.120;5.252;2022-12-26T05:11:59;1265.07;;;600.33;;
17133;SDS011;8682;52.120;5.252;2022-12-26T05:14:28;1023.43;;;594.37;;
17133;SDS011;8682;52.120;5.252;2022-12-26T05:16:55;1248.90;;;707.57;;
17133;SDS011;8682;52.120;5.252;2022-12-26T05:19:55;1120.10;;;567.60;;
17133;SDS011;8682;52.120;5.252;2022-12-26T05:22:40;1373.97;;;668.80;;
17133;SDS011;8682;52.120;5.252;2022-12-26T05:25:27;1196.13;;;579.47;;
17133;SDS011;8682;52.120;5.252;2022-12-26T05:28:12;1229.77;;;618.63;;
17133;SDS011;8682;52.120;5.252;2022-12-26T05:30:59;1124.03;;;557.10;;
17133;SDS011;8682;52.120;5.252;2022-12-26T05:33:27;1210.63;;;582.20;;
17133;SDS011;8682;52.120;5.252;2022-12-26T05:36:12;1193.27;;;597.00;;
17133;SDS011;8682;52.120;5.252;2022-12-26T05:38:39;1230.30;;;637.93;;
17133;SDS011;8682;52.120;5.252;2022-12-26T05:41:07;1276.17;;;682.70;;
17133;SDS011;8682;52.120;5.252;2022-12-26T05:43:34;1345.67;;;639.53;;
17133;SDS011;8682;52.120;5.252;2022-12-26T05:46:02;1377.33;;;691.00;;
17133;SDS011;8682;52.120;5.252;2022-12-26T05:48:30;1163.17;;;620.70;;
17133;SDS011;8682;52.120;5.252;2022-12-26T05:50:57;1218.83;;;653.23;;
17133;SDS011;8682;52.120;5.252;2022-12-26T05:53:25;1222.20;;;654.03;;
17133;SDS011;8682;52.120;5.252;2022-12-26T05:55:52;1182.20;;;651.00;;
17133;SDS011;8682;52.120;5.252;2022-12-26T05:58:19;909.63;;;522.67;;
17133;SDS011;8682;52.120;5.252;2022-12-26T06:00:46;993.83;;;601.93;;
17133;SDS011;8682;52.120;5.252;2022-12-26T06:03:15;1220.37;;;645.50;;
17133;SDS011;8682;52.120;5.252;2022-12-26T06:05:42;1106.57;;;633.93;;
17133;SDS011;8682;52.120;5.252;2022-12-26T06:08:10;1409.97;;;761.67;;
17133;SDS011;8682;52.120;5.252;2022-12-26T06:10:37;1120.97;;;639.23;;
17133;SDS011;8682;52.120;5.252;2022-12-26T06:13:04;971.60;;;600.97;;
17133;SDS011;8682;52.120;5.252;2022-12-26T06:15:31;1011.47;;;581.03;;
17133;SDS011;8682;52.120;5.252;2022-12-26T06:17:59;1060.70;;;641.93;;
17133;SDS011;8682;52.120;5.252;2022-12-26T06:20:27;1025.47;;;595.03;;
17133;SDS011;8682;52.120;5.252;2022-12-26T06:22:55;1167.50;;;689.63;;
17133;SDS011;8682;52.120;5.252;2022-12-26T06:25:25;1119.23;;;665.90;;
17133;SDS011;8682;52.120;5.252;2022-12-26T06:27:52;1238.00;;;685.33;;
17133;SDS011;8682;52.120;5.252;2022-12-26T06:30:19;1147.53;;;696.63;;
17133;SDS011;8682;52.120;5.252;2022-12-26T06:32:47;1180.90;;;667.70;;
17133;SDS011;8682;52.120;5.252;2022-12-26T06:35:14;1055.40;;;600.03;;
17133;SDS011;8682;52.120;5.252;2022-12-26T06:37:43;1153.77;;;683.40;;
17133;SDS011;8682;52.120;5.252;2022-12-26T06:40:10;1321.03;;;726.87;;
17133;SDS011;8682;52.120;5.252;2022-12-26T06:42:37;1212.83;;;683.97;;
17133;SDS011;8682;52.120;5.252;2022-12-26T06:45:05;1230.27;;;660.67;;
17133;SDS011;8682;52.120;5.252;2022-12-26T06:47:32;1211.80;;;653.60;;
17133;SDS011;8682;52.120;5.252;2022-12-26T06:50:00;1242.43;;;653.23;;
17133;SDS011;8682;52.120;5.252;2022-12-26T06:52:27;871.93;;;533.80;;
17133;SDS011;8682;52.120;5.252;2022-12-26T06:54:55;1106.40;;;624.73;;
17133;SDS011;8682;52.120;5.252;2022-12-26T06:57:23;1146.07;;;603.63;;
17133;SDS011;8682;52.120;5.252;2022-12-26T06:59:51;1038.57;;;573.57;;
17133;SDS011;8682;52.120;5.252;2022-12-26T07:02:18;1229.83;;;648.80;;
17133;SDS011;8682;52.120;5.252;2022-12-26T07:04:45;1040.27;;;655.67;;
17133;SDS011;8682;52.120;5.252;2022-12-26T07:07:12;1171.27;;;647.77;;
17133;SDS011;8682;52.120;5.252;2022-12-26T07:09:40;982.67;;;585.30;;
17133;SDS011;8682;52.120;5.252;2022-12-26T07:12:08;1146.20;;;633.93;;
17133;SDS011;8682;52.120;5.252;2022-12-26T07:14:35;1043.20;;;608.27;;
17133;SDS011;8682;52.120;5.252;2022-12-26T07:17:03;1154.23;;;630.20;;
17133;SDS011;8682;52.120;5.252;2022-12-26T07:19:30;1076.03;;;643.67;;
17133;SDS011;8682;52.120;5.252;2022-12-26T07:21:57;1076.00;;;635.63;;
17133;SDS011;8682;52.120;5.252;2022-12-26T07:24:24;1295.43;;;712.97;;
17133;SDS011;8682;52.120;5.252;2022-12-26T07:26:52;1171.27;;;679.60;;
17133;SDS011;8682;52.120;5.252;2022-12-26T07:29:32;1178.23;;;699.10;;
17133;SDS011;8682;52.120;5.252;2022-12-26T07:32:00;1058.73;;;567.13;;
17133;SDS011;8682;52.120;5.252;2022-12-26T07:34:27;1547.77;;;793.07;;
17133;SDS011;8682;52.120;5.252;2022-12-26T07:36:55;1299.57;;;720.03;;
17133;SDS011;8682;52.120;5.252;2022-12-26T07:39:22;1466.73;;;595.03;;
17133;SDS011;8682;52.120;5.252;2022-12-26T07:41:50;1072.67;;;653.33;;
17133;SDS011;8682;52.120;5.252;2022-12-26T07:44:23;1413.33;;;705.43;;
17133;SDS011;8682;52.120;5.252;2022-12-26T07:46:52;1172.90;;;647.40;;
17133;SDS011;8682;52.120;5.252;2022-12-26T07:49:19;1262.43;;;694.33;;
17133;SDS011;8682;52.120;5.252;2022-12-26T07:51:46;1121.13;;;622.37;;
17133;SDS011;8682;52.120;5.252;2022-12-26T07:54:14;1088.33;;;618.90;;
17133;SDS011;8682;52.120;5.252;2022-12-26T07:56:41;1118.27;;;678.10;;
17133;SDS011;8682;52.120;5.252;2022-12-26T07:59:11;968.87;;;513.27;;
17133;SDS011;8682;52.120;5.252;2022-12-26T08:01:39;1131.67;;;660.13;;
17133;SDS011;8682;52.120;5.252;2022-12-26T08:04:08;1159.87;;;642.40;;
17133;SDS011;8682;52.120;5.252;2022-12-26T08:06:35;1085.83;;;660.27;;
17133;SDS011;8682;52.120;5.252;2022-12-26T08:09:02;759.60;;;435.20;;
17133;SDS011;8682;52.120;5.252;2022-12-26T08:11:30;172.82;;;164.05;;
17133;SDS011;8682;52.120;5.252;2022-12-26T08:13:58;130.77;;;108.63;;
17133;SDS011;8682;52.120;5.252;2022-12-26T08:16:26;457.50;;;408.00;;
17133;SDS011;8682;52.120;5.252;2022-12-26T08:18:54;994.33;;;619.23;;
17133;SDS011;8682;52.120;5.252;2022-12-26T08:21:23;1012.37;;;602.47;;
17133;SDS011;8682;52.120;5.252;2022-12-26T08:23:50;1048.47;;;604.43;;
17133;SDS011;8682;52.120;5.252;2022-12-26T08:26:17;1131.60;;;637.03;;
17133;SDS011;8682;52.120;5.252;2022-12-26T08:28:47;1014.57;;;596.63;;
17133;SDS011;8682;52.120;5.252;2022-12-26T08:31:15;1034.07;;;593.23;;
17133;SDS011;8682;52.120;5.252;2022-12-26T08:33:43;1082.03;;;547.73;;
17133;SDS011;8682;52.120;5.252;2022-12-26T08:36:10;911.30;;;574.23;;
17133;SDS011;8682;52.120;5.252;2022-12-26T08:38:42;984.70;;;572.50;;
17133;SDS011;8682;52.120;5.252;2022-12-26T08:41:09;1061.50;;;595.57;;
17133;SDS011;8682;52.120;5.252;2022-12-26T08:43:36;1179.03;;;653.17;;
17133;SDS011;8682;52.120;5.252;2022-12-26T08:46:04;876.73;;;564.07;;
17133;SDS011;8682;52.120;5.252;2022-12-26T08:48:31;1020.10;;;590.70;;
17133;SDS011;8682;52.120;5.252;2022-12-26T08:51:00;1111.00;;;623.60;;
17133;SDS011;8682;52.120;5.252;2022-12-26T08:53:27;1040.10;;;587.57;;
17133;SDS011;8682;52.120;5.252;2022-12-26T08:55:58;738.80;;;400.97;;
17133;SDS011;8682;52.120;5.252;2022-12-26T08:58:25;1169.57;;;640.10;;
17133;SDS011;8682;52.120;5.252;2022-12-26T09:00:52;985.83;;;643.47;;
17133;SDS011;8682;52.120;5.252;2022-12-26T09:03:19;431.20;;;305.63;;
17133;SDS011;8682;52.120;5.252;2022-12-26T09:05:47;845.13;;;501.97;;
17133;SDS011;8682;52.120;5.252;2022-12-26T09:08:14;684.80;;;447.47;;
17133;SDS011;8682;52.120;5.252;2022-12-26T09:10:41;1081.47;;;637.03;;
17133;SDS011;8682;52.120;5.252;2022-12-26T09:13:10;775.30;;;512.20;;
17133;SDS011;8682;52.120;5.252;2022-12-26T09:15:37;902.80;;;616.57;;
17133;SDS011;8682;52.120;5.252;2022-12-26T09:18:04;982.30;;;596.67;;
17133;SDS011;8682;52.120;5.252;2022-12-26T09:20:32;1188.83;;;677.57;;
17133;SDS011;8682;52.120;5.252;2022-12-26T09:22:59;1203.30;;;672.13;;
17133;SDS011;8682;52.120;5.252;2022-12-26T09:25:26;1078.50;;;615.83;;
17133;SDS011;8682;52.120;5.252;2022-12-26T09:27:53;1105.30;;;689.63;;
17133;SDS011;8682;52.120;5.252;2022-12-26T09:30:22;980.20;;;617.83;;
17133;SDS011;8682;52.120;5.252;2022-12-26T09:32:49;930.10;;;585.03;;
17133;SDS011;8682;52.120;5.252;2022-12-26T09:35:17;1049.33;;;641.00;;
17133;SDS011;8682;52.120;5.252;2022-12-26T09:37:44;1134.50;;;688.53;;
17133;SDS011;8682;52.120;5.252;2022-12-26T09:40:18;888.23;;;606.67;;
17133;SDS011;8682;52.120;5.252;2022-12-26T09:42:47;1437.40;;;695.90;;
17133;SDS011;8682;52.120;5.252;2022-12-26T09:45:16;1104.07;;;640.27;;
17133;SDS011;8682;52.120;5.252;2022-12-26T09:47:47;1298.73;;;637.10;;
17133;SDS011;8682;52.120;5.252;2022-12-26T09:50:19;1295.40;;;702.00;;
17133;SDS011;8682;52.120;5.252;2022-12-26T09:52:51;1101.27;;;570.80;;
17133;SDS011;8682;52.120;5.252;2022-12-26T09:55:24;782.67;;;312.23;;
17133;SDS011;8682;52.120;5.252;2022-12-26T09:57:54;1152.83;;;595.37;;
17133;SDS011;8682;52.120;5.252;2022-12-26T10:00:24;1309.67;;;617.90;;
17133;SDS011;8682;52.120;5.252;2022-12-26T10:02:54;1115.97;;;492.83;;
17133;SDS011;8682;52.120;5.252;2022-12-26T10:05:24;1451.77;;;699.80;;
17133;SDS011;8682;52.120;5.252;2022-12-26T10:07:54;1072.17;;;556.60;;
17133;SDS011;8682;52.120;5.252;2022-12-26T10:10:24;955.87;;;405.07;;
17133;SDS011;8682;52.120;5.252;2022-12-26T10:12:54;747.73;;;380.90;;
17133;SDS011;8682;52.120;5.252;2022-12-26T10:15:26;979.00;;;456.93;;
17133;SDS011;8682;52.120;5.252;2022-12-26T10:17:58;905.60;;;383.40;;
17133;SDS011;8682;52.120;5.252;2022-12-26T10:20:32;784.27;;;351.37;;
17133;SDS011;8682;52.120;5.252;2022-12-26T10:25:45;1580.67;;;776.30;;
17133;SDS011;8682;52.120;5.252;2022-12-26T10:28:15;1604.53;;;794.70;;
17133;SDS011;8682;52.120;5.252;2022-12-26T10:30:42;469.50;;;260.20;;
17133;SDS011;8682;52.120;5.252;2022-12-26T10:33:14;473.33;;;249.10;;
17133;SDS011;8682;52.120;5.252;2022-12-26T10:35:43;1567.00;;;780.20;;
17133;SDS011;8682;52.120;5.252;2022-12-26T10:38:11;1569.77;;;783.73;;
17133;SDS011;8682;52.120;5.252;2022-12-26T10:40:40;1999.90;;;999.90;;
17133;SDS011;8682;52.120;5.252;2022-12-26T10:43:14;1430.27;;;722.57;;
17133;SDS011;8682;52.120;5.252;2022-12-26T10:45:44;1418.63;;;715.53;;
17133;SDS011;8682;52.120;5.252;2022-12-26T10:48:16;1999.90;;;999.90;;
17133;SDS011;8682;52.120;5.252;2022-12-26T10:50:44;1999.90;;;999.90;;
17133;SDS011;8682;52.120;5.252;2022-12-26T10:53:12;1999.90;;;999.90;;
17133;SDS011;8682;52.120;5.252;2022-12-26T10:55:40;1999.90;;;999.90;;
17133;SDS011;8682;52.120;5.252;2022-12-26T10:58:10;1999.90;;;999.90;;
17133;SDS011;8682;52.120;5.252;2022-12-26T11:00:40;1999.90;;;999.90;;
17133;SDS011;8682;52.120;5.252;2022-12-26T11:03:08;1999.90;;;999.90;;
17133;SDS011;8682;52.120;5.252;2022-12-26T11:05:39;1999.90;;;999.90;;
17133;SDS011;8682;52.120;5.252;2022-12-26T11:08:07;1999.90;;;999.90;;
17133;SDS011;8682;52.120;5.252;2022-12-26T11:10:34;1999.90;;;999.90;;
17133;SDS011;8682;52.120;5.252;2022-12-26T11:13:03;1999.90;;;999.90;;
17133;SDS011;8682;52.120;5.252;2022-12-26T11:15:33;1999.90;;;999.90;;
17133;SDS011;8682;52.120;5.252;2022-12-26T11:18:08;1999.90;;;999.90;;
17133;SDS011;8682;52.120;5.252;2022-12-26T11:20:35;1999.90;;;999.90;;
17133;SDS011;8682;52.120;5.252;2022-12-26T11:23:17;1999.90;;;999.90;;
17133;SDS011;8682;52.120;5.252;2022-12-26T11:25:47;1999.90;;;999.90;;
17133;SDS011;8682;52.120;5.252;2022-12-26T11:28:18;1999.90;;;999.90;;
17133;SDS011;8682;52.120;5.252;2022-12-26T11:30:47;1999.90;;;999.90;;
17133;SDS011;8682;52.120;5.252;2022-12-26T11:33:17;1999.90;;;999.90;;
17133;SDS011;8682;52.120;5.252;2022-12-26T11:35:48;1999.90;;;999.90;;
17133;SDS011;8682;52.120;5.252;2022-12-26T11:38:18;1999.90;;;999.90;;
17133;SDS011;8682;52.120;5.252;2022-12-26T11:41:04;1999.90;;;999.90;;
17133;SDS011;8682;52.120;5.252;2022-12-26T11:43:51;1999.90;;;999.90;;
17133;SDS011;8682;52.120;5.252;2022-12-26T11:46:18;1999.90;;;999.90;;
17133;SDS011;8682;52.120;5.252;2022-12-26T11:48:47;1999.90;;;999.90;;
17133;SDS011;8682;52.120;5.252;2022-12-26T11:51:15;1999.90;;;999.90;;
17133;SDS011;8682;52.120;5.252;2022-12-26T11:53:44;1999.90;;;999.90;;
17133;SDS011;8682;52.120;5.252;2022-12-26T11:56:11;1999.90;;;999.90;;
17133;SDS011;8682;52.120;5.252;2022-12-26T11:58:39;1999.90;;;999.90;;
17133;SDS011;8682;52.120;5.252;2022-12-26T12:01:15;1999.90;;;999.90;;
17133;SDS011;8682;52.120;5.252;2022-12-26T12:03:43;1999.90;;;999.90;;
17133;SDS011;8682;52.120;5.252;2022-12-26T12:06:17;1999.90;;;999.90;;
17133;SDS011;8682;52.120;5.252;2022-12-26T12:08:51;1999.90;;;999.90;;
17133;SDS011;8682;52.120;5.252;2022-12-26T12:11:24;1999.90;;;999.90;;
17133;SDS011;8682;52.120;5.252;2022-12-26T12:16:47;1999.90;;;999.90;;
17133;SDS011;8682;52.120;5.252;2022-12-26T12:19:20;1999.90;;;999.90;;
17133;SDS011;8682;52.120;5.252;2022-12-26T12:21:53;1999.90;;;999.90;;
17133;SDS011;8682;52.120;5.252;2022-12-26T12:24:30;1999.90;;;999.90;;
17133;SDS011;8682;52.120;5.252;2022-12-26T12:27:04;1999.90;;;999.90;;
17133;SDS011;8682;52.120;5.252;2022-12-26T12:29:39;1999.90;;;999.90;;
17133;SDS011;8682;52.120;5.252;2022-12-26T12:32:11;1999.90;;;999.90;;
17133;SDS011;8682;52.120;5.252;2022-12-26T12:34:46;1999.90;;;999.90;;
17133;SDS011;8682;52.120;5.252;2022-12-26T12:37:24;1999.90;;;999.90;;
17133;SDS011;8682;52.120;5.252;2022-12-26T12:39:58;1999.90;;;999.90;;
17133;SDS011;8682;52.120;5.252;2022-12-26T12:42:29;1999.90;;;999.90;;
17133;SDS011;8682;52.120;5.252;2022-12-26T12:45:03;1999.90;;;999.90;;
17133;SDS011;8682;52.120;5.252;2022-12-26T12:47:35;1999.90;;;999.90;;
17133;SDS011;8682;52.120;5.252;2022-12-26T12:50:09;1999.90;;;999.90;;
17133;SDS011;8682;52.120;5.252;2022-12-26T12:52:39;1999.90;;;999.90;;
17133;SDS011;8682;52.120;5.252;2022-12-26T12:55:18;1999.90;;;999.90;;
17133;SDS011;8682;52.120;5.252;2022-12-26T12:57:48;1999.90;;;999.90;;
17133;SDS011;8682;52.120;5.252;2022-12-26T13:00:19;1999.90;;;999.90;;
17133;SDS011;8682;52.120;5.252;2022-12-26T13:02:50;1999.90;;;999.90;;
17133;SDS011;8682;52.120;5.252;2022-12-26T13:05:21;1999.90;;;999.90;;
17133;SDS011;8682;52.120;5.252;2022-12-26T13:07:53;1999.90;;;999.90;;
17133;SDS011;8682;52.120;5.252;2022-12-26T13:10:23;1999.90;;;999.90;;
17133;SDS011;8682;52.120;5.252;2022-12-26T13:12:52;1999.90;;;999.90;;
17133;SDS011;8682;52.120;5.252;2022-12-26T13:15:22;1999.90;;;999.90;;
17133;SDS011;8682;52.120;5.252;2022-12-26T13:17:52;1999.90;;;999.90;;
17133;SDS011;8682;52.120;5.252;2022-12-26T13:20:21;1999.90;;;999.90;;
17133;SDS011;8682;52.120;5.252;2022-12-26T13:22:52;1999.90;;;832.23;;
17133;SDS011;8682;52.120;5.252;2022-12-26T13:25:41;1908.67;;;757.40;;
17133;SDS011;8682;52.120;5.252;2022-12-26T13:28:12;1214.63;;;549.20;;
17133;SDS011;8682;52.120;5.252;2022-12-26T13:30:41;953.77;;;419.07;;
17133;SDS011;8682;52.120;5.252;2022-12-26T13:33:10;1366.93;;;512.30;;
17133;SDS011;8682;52.120;5.252;2022-12-26T13:35:54;1587.63;;;682.50;;
17133;SDS011;8682;52.120;5.252;2022-12-26T13:38:22;1999.90;;;999.90;;
17133;SDS011;8682;52.120;5.252;2022-12-26T13:40:52;1999.90;;;999.90;;
17133;SDS011;8682;52.120;5.252;2022-12-26T13:43:21;1987.40;;;797.33;;
17133;SDS011;8682;52.120;5.252;2022-12-26T13:46:14;1999.90;;;999.90;;
17133;SDS011;8682;52.120;5.252;2022-12-26T13:48:58;1827.03;;;673.60;;
17133;SDS011;8682;52.120;5.252;2022-12-26T13:51:42;1999.90;;;999.90;;
17133;SDS011;8682;52.120;5.252;2022-12-26T13:54:10;1661.30;;;704.87;;
17133;SDS011;8682;52.120;5.252;2022-12-26T13:59:31;1999.90;;;999.90;;
17133;SDS011;8682;52.120;5.252;2022-12-26T14:02:08;1999.90;;;999.90;;
17133;SDS011;8682;52.120;5.252;2022-12-26T14:04:42;1999.90;;;999.90;;
17133;SDS011;8682;52.120;5.252;2022-12-26T14:07:17;1999.90;;;999.90;;
17133;SDS011;8682;52.120;5.252;2022-12-26T14:09:51;1716.47;;;669.77;;
17133;SDS011;8682;52.120;5.252;2022-12-26T14:15:22;1999.90;;;999.90;;
17133;SDS011;8682;52.120;5.252;2022-12-26T14:17:52;1999.90;;;999.90;;
17133;SDS011;8682;52.120;5.252;2022-12-26T14:20:28;1999.90;;;999.90;;
17133;SDS011;8682;52.120;5.252;2022-12-26T14:23:00;1999.90;;;999.90;;
17133;SDS011;8682;52.120;5.252;2022-12-26T14:25:29;1999.90;;;999.90;;
17133;SDS011;8682;52.120;5.252;2022-12-26T14:27:59;1814.40;;;662.03;;
17133;SDS011;8682;52.120;5.252;2022-12-26T14:30:32;1999.90;;;999.90;;
17133;SDS011;8682;52.120;5.252;2022-12-26T14:33:12;1999.90;;;999.90;;
17133;SDS011;8682;52.120;5.252;2022-12-26T14:35:45;1999.90;;;999.90;;
17133;SDS011;8682;52.120;5.252;2022-12-26T14:38:18;1797.20;;;761.03;;
17133;SDS011;8682;52.120;5.252;2022-12-26T14:40:57;1999.90;;;999.90;;